sensor_id;sensor_type;location;lat;lon;timestamp;temperature;humidity
77100;SHT31;66602;48.922;2.414;2024-01-06T00:00:35;4.49;95.65
77100;SHT31;66602;48.922;2.414;2024-01-06T00:03:00;4.42;95.52
77100;SHT31;66602;48.922;2.414;2024-01-06T00:05:26;4.41;95.36
77100;SHT31;66602;48.922;2.414;2024-01-06T00:07:52;4.41;95.40
77100;SHT31;66602;48.922;2.414;2024-01-06T00:10:18;4.39;95.33
77100;SHT31;66602;48.922;2.414;2024-01-06T00:12:44;4.45;95.59
77100;SHT31;66602;48.922;2.414;2024-01-06T00:15:09;4.48;95.46
77100;SHT31;66602;48.922;2.414;2024-01-06T00:17:36;4.52;95.46
77100;SHT31;66602;48.922;2.414;2024-01-06T00:20:02;4.63;95.62
77100;SHT31;66602;48.922;2.414;2024-01-06T00:22:28;4.65;95.51
77100;SHT31;66602;48.922;2.414;2024-01-06T00:24:53;4.72;95.49
77100;SHT31;66602;48.922;2.414;2024-01-06T00:27:19;4.74;95.42
77100;SHT31;66602;48.922;2.414;2024-01-06T00:29:45;4.87;94.85
77100;SHT31;66602;48.922;2.414;2024-01-06T00:32:11;4.87;94.37
77100;SHT31;66602;48.922;2.414;2024-01-06T00:34:37;4.84;94.36
77100;SHT31;66602;48.922;2.414;2024-01-06T00:37:02;4.96;94.19
77100;SHT31;66602;48.922;2.414;2024-01-06T00:39:28;4.98;94.01
77100;SHT31;66602;48.922;2.414;2024-01-06T00:41:54;4.96;93.68
77100;SHT31;66602;48.922;2.414;2024-01-06T00:44:20;4.80;93.27
77100;SHT31;66602;48.922;2.414;2024-01-06T00:46:45;4.60;93.02
77100;SHT31;66602;48.922;2.414;2024-01-06T00:49:11;4.41;93.27
77100;SHT31;66602;48.922;2.414;2024-01-06T00:51:37;4.31;93.90
77100;SHT31;66602;48.922;2.414;2024-01-06T00:54:02;4.32;94.35
77100;SHT31;66602;48.922;2.414;2024-01-06T00:56:28;4.34;94.84
77100;SHT31;66602;48.922;2.414;2024-01-06T00:58:54;4.32;94.71
77100;SHT31;66602;48.922;2.414;2024-01-06T01:01:20;4.38;94.86
77100;SHT31;66602;48.922;2.414;2024-01-06T01:03:47;4.41;94.83
77100;SHT31;66602;48.922;2.414;2024-01-06T01:06:12;4.25;94.41
77100;SHT31;66602;48.922;2.414;2024-01-06T01:08:38;4.18;94.53
77100;SHT31;66602;48.922;2.414;2024-01-06T01:11:04;4.18;94.92
77100;SHT31;66602;48.922;2.414;2024-01-06T01:13:30;4.09;94.72
77100;SHT31;66602;48.922;2.414;2024-01-06T01:15:56;3.91;94.56
77100;SHT31;66602;48.922;2.414;2024-01-06T01:18:22;3.80;94.97
77100;SHT31;66602;48.922;2.414;2024-01-06T01:20:47;3.73;94.96
77100;SHT31;66602;48.922;2.414;2024-01-06T01:23:13;3.67;95.17
77100;SHT31;66602;48.922;2.414;2024-01-06T01:25:39;3.60;94.94
77100;SHT31;66602;48.922;2.414;2024-01-06T01:28:04;3.67;96.00
77100;SHT31;66602;48.922;2.414;2024-01-06T01:30:30;3.62;95.66
77100;SHT31;66602;48.922;2.414;2024-01-06T01:32:58;3.57;95.66
77100;SHT31;66602;48.922;2.414;2024-01-06T01:35:23;3.52;95.65
77100;SHT31;66602;48.922;2.414;2024-01-06T01:37:49;3.59;96.27
77100;SHT31;66602;48.922;2.414;2024-01-06T01:40:15;3.54;96.14
77100;SHT31;66602;48.922;2.414;2024-01-06T01:42:42;3.56;96.09
77100;SHT31;66602;48.922;2.414;2024-01-06T01:45:08;3.56;96.09
77100;SHT31;66602;48.922;2.414;2024-01-06T01:47:33;3.54;96.26
77100;SHT31;66602;48.922;2.414;2024-01-06T01:49:59;3.47;96.15
77100;SHT31;66602;48.922;2.414;2024-01-06T01:52:26;3.36;95.92
77100;SHT31;66602;48.922;2.414;2024-01-06T01:54:52;3.40;96.12
77100;SHT31;66602;48.922;2.414;2024-01-06T01:57:18;3.47;96.67
77100;SHT31;66602;48.922;2.414;2024-01-06T01:59:44;3.37;96.21
77100;SHT31;66602;48.922;2.414;2024-01-06T02:02:10;3.29;96.15
77100;SHT31;66602;48.922;2.414;2024-01-06T02:04:38;3.40;96.71
77100;SHT31;66602;48.922;2.414;2024-01-06T02:07:04;3.40;96.59
77100;SHT31;66602;48.922;2.414;2024-01-06T02:09:30;3.46;97.00
77100;SHT31;66602;48.922;2.414;2024-01-06T02:11:58;3.42;96.72
77100;SHT31;66602;48.922;2.414;2024-01-06T02:14:24;3.43;96.97
77100;SHT31;66602;48.922;2.414;2024-01-06T02:16:49;3.46;96.96
77100;SHT31;66602;48.922;2.414;2024-01-06T02:19:16;3.49;96.75
77100;SHT31;66602;48.922;2.414;2024-01-06T02:21:44;3.52;96.96
77100;SHT31;66602;48.922;2.414;2024-01-06T02:24:10;3.50;96.94
77100;SHT31;66602;48.922;2.414;2024-01-06T02:26:35;3.54;96.97
77100;SHT31;66602;48.922;2.414;2024-01-06T02:29:01;3.59;97.04
77100;SHT31;66602;48.922;2.414;2024-01-06T02:31:27;3.67;97.31
77100;SHT31;66602;48.922;2.414;2024-01-06T02:33:53;3.85;97.45
77100;SHT31;66602;48.922;2.414;2024-01-06T02:36:37;3.91;97.30
77100;SHT31;66602;48.922;2.414;2024-01-06T02:39:02;3.98;97.29
77100;SHT31;66602;48.922;2.414;2024-01-06T02:41:28;4.08;97.28
77100;SHT31;66602;48.922;2.414;2024-01-06T02:43:54;4.08;97.16
77100;SHT31;66602;48.922;2.414;2024-01-06T02:46:21;4.11;97.05
77100;SHT31;66602;48.922;2.414;2024-01-06T02:48:47;4.25;97.10
77100;SHT31;66602;48.922;2.414;2024-01-06T02:51:12;4.35;97.07
77100;SHT31;66602;48.922;2.414;2024-01-06T02:53:38;4.49;96.60
77100;SHT31;66602;48.922;2.414;2024-01-06T02:56:09;4.67;95.35
77100;SHT31;66602;48.922;2.414;2024-01-06T02:58:35;4.80;94.95
77100;SHT31;66602;48.922;2.414;2024-01-06T03:01:00;4.81;95.43
77100;SHT31;66602;48.922;2.414;2024-01-06T03:03:26;4.83;95.37
77100;SHT31;66602;48.922;2.414;2024-01-06T03:05:51;4.86;95.10
77100;SHT31;66602;48.922;2.414;2024-01-06T03:08:17;4.91;95.05
77100;SHT31;66602;48.922;2.414;2024-01-06T03:10:43;4.93;94.95
77100;SHT31;66602;48.922;2.414;2024-01-06T03:13:08;4.98;94.65
77100;SHT31;66602;48.922;2.414;2024-01-06T03:15:34;5.00;94.18
77100;SHT31;66602;48.922;2.414;2024-01-06T03:17:59;5.07;93.87
77100;SHT31;66602;48.922;2.414;2024-01-06T03:20:24;5.08;93.67
77100;SHT31;66602;48.922;2.414;2024-01-06T03:22:50;5.07;93.75
77100;SHT31;66602;48.922;2.414;2024-01-06T03:25:15;5.10;93.44
77100;SHT31;66602;48.922;2.414;2024-01-06T03:27:41;5.07;93.58
77100;SHT31;66602;48.922;2.414;2024-01-06T03:30:07;5.10;93.97
77100;SHT31;66602;48.922;2.414;2024-01-06T03:32:32;5.10;93.75
77100;SHT31;66602;48.922;2.414;2024-01-06T03:34:58;5.14;93.56
77100;SHT31;66602;48.922;2.414;2024-01-06T03:37:23;5.14;93.07
77100;SHT31;66602;48.922;2.414;2024-01-06T03:39:49;5.20;92.81
77100;SHT31;66602;48.922;2.414;2024-01-06T03:42:15;5.21;92.83
77100;SHT31;66602;48.922;2.414;2024-01-06T03:44:40;5.23;92.14
77100;SHT31;66602;48.922;2.414;2024-01-06T03:47:06;5.23;92.10
77100;SHT31;66602;48.922;2.414;2024-01-06T03:49:31;5.20;92.27
77100;SHT31;66602;48.922;2.414;2024-01-06T03:51:56;5.15;92.11
77100;SHT31;66602;48.922;2.414;2024-01-06T03:54:22;5.15;92.65
77100;SHT31;66602;48.922;2.414;2024-01-06T03:56:48;5.15;92.67
77100;SHT31;66602;48.922;2.414;2024-01-06T03:59:13;5.13;92.00
77100;SHT31;66602;48.922;2.414;2024-01-06T04:01:38;5.15;92.37
77100;SHT31;66602;48.922;2.414;2024-01-06T04:04:05;5.13;92.18
77100;SHT31;66602;48.922;2.414;2024-01-06T04:06:30;5.15;92.61
77100;SHT31;66602;48.922;2.414;2024-01-06T04:09:00;5.17;92.48
77100;SHT31;66602;48.922;2.414;2024-01-06T04:11:25;5.15;92.81
77100;SHT31;66602;48.922;2.414;2024-01-06T04:13:51;5.18;92.82
77100;SHT31;66602;48.922;2.414;2024-01-06T04:16:16;5.14;92.97
77100;SHT31;66602;48.922;2.414;2024-01-06T04:18:42;5.18;93.13
77100;SHT31;66602;48.922;2.414;2024-01-06T04:21:07;5.20;93.38
77100;SHT31;66602;48.922;2.414;2024-01-06T04:23:34;5.20;93.25
77100;SHT31;66602;48.922;2.414;2024-01-06T04:26:00;5.23;93.33
77100;SHT31;66602;48.922;2.414;2024-01-06T04:28:25;5.24;92.85
77100;SHT31;66602;48.922;2.414;2024-01-06T04:30:51;5.25;92.86
77100;SHT31;66602;48.922;2.414;2024-01-06T04:33:16;5.27;92.56
77100;SHT31;66602;48.922;2.414;2024-01-06T04:35:42;5.27;92.17
77100;SHT31;66602;48.922;2.414;2024-01-06T04:38:07;5.28;92.09
77100;SHT31;66602;48.922;2.414;2024-01-06T04:40:34;5.31;92.21
77100;SHT31;66602;48.922;2.414;2024-01-06T04:42:59;5.28;92.16
77100;SHT31;66602;48.922;2.414;2024-01-06T04:45:25;5.36;91.75
77100;SHT31;66602;48.922;2.414;2024-01-06T04:47:51;5.35;91.57
77100;SHT31;66602;48.922;2.414;2024-01-06T04:50:16;5.35;91.22
77100;SHT31;66602;48.922;2.414;2024-01-06T04:52:43;5.35;91.81
77100;SHT31;66602;48.922;2.414;2024-01-06T04:55:09;5.35;91.30
77100;SHT31;66602;48.922;2.414;2024-01-06T04:57:36;5.39;91.11
77100;SHT31;66602;48.922;2.414;2024-01-06T05:00:02;5.39;91.10
77100;SHT31;66602;48.922;2.414;2024-01-06T05:02:28;5.36;91.44
77100;SHT31;66602;48.922;2.414;2024-01-06T05:04:54;5.35;91.78
77100;SHT31;66602;48.922;2.414;2024-01-06T05:07:19;5.36;91.79
77100;SHT31;66602;48.922;2.414;2024-01-06T05:09:45;5.39;91.88
77100;SHT31;66602;48.922;2.414;2024-01-06T05:12:10;5.36;91.67
77100;SHT31;66602;48.922;2.414;2024-01-06T05:14:36;5.34;91.88
77100;SHT31;66602;48.922;2.414;2024-01-06T05:17:01;5.34;91.92
77100;SHT31;66602;48.922;2.414;2024-01-06T05:19:27;5.27;91.79
77100;SHT31;66602;48.922;2.414;2024-01-06T05:21:52;5.17;91.88
77100;SHT31;66602;48.922;2.414;2024-01-06T05:24:18;5.11;92.13
77100;SHT31;66602;48.922;2.414;2024-01-06T05:26:44;5.07;92.16
77100;SHT31;66602;48.922;2.414;2024-01-06T05:29:10;4.97;92.23
77100;SHT31;66602;48.922;2.414;2024-01-06T05:31:35;4.83;92.49
77100;SHT31;66602;48.922;2.414;2024-01-06T05:34:01;4.74;92.69
77100;SHT31;66602;48.922;2.414;2024-01-06T05:36:26;4.57;92.84
77100;SHT31;66602;48.922;2.414;2024-01-06T05:38:52;4.46;93.20
77100;SHT31;66602;48.922;2.414;2024-01-06T05:41:17;4.34;93.54
77100;SHT31;66602;48.922;2.414;2024-01-06T05:43:44;4.31;94.11
77100;SHT31;66602;48.922;2.414;2024-01-06T05:46:10;4.31;94.45
77100;SHT31;66602;48.922;2.414;2024-01-06T05:48:36;4.49;95.02
77100;SHT31;66602;48.922;2.414;2024-01-06T05:51:04;4.63;94.89
77100;SHT31;66602;48.922;2.414;2024-01-06T05:53:31;4.72;94.45
77100;SHT31;66602;48.922;2.414;2024-01-06T05:55:56;4.80;94.00
77100;SHT31;66602;48.922;2.414;2024-01-06T05:58:22;4.88;93.65
77100;SHT31;66602;48.922;2.414;2024-01-06T06:00:48;4.91;93.35
77100;SHT31;66602;48.922;2.414;2024-01-06T06:03:13;4.88;93.04
77100;SHT31;66602;48.922;2.414;2024-01-06T06:05:39;4.87;93.00
77100;SHT31;66602;48.922;2.414;2024-01-06T06:08:04;4.86;92.99
77100;SHT31;66602;48.922;2.414;2024-01-06T06:10:30;4.87;92.98
77100;SHT31;66602;48.922;2.414;2024-01-06T06:13:06;4.84;92.81
77100;SHT31;66602;48.922;2.414;2024-01-06T06:15:32;4.79;92.88
77100;SHT31;66602;48.922;2.414;2024-01-06T06:17:58;4.72;93.09
77100;SHT31;66602;48.922;2.414;2024-01-06T06:20:25;4.72;93.32
77100;SHT31;66602;48.922;2.414;2024-01-06T06:22:51;4.66;93.43
77100;SHT31;66602;48.922;2.414;2024-01-06T06:25:16;4.72;93.52
77100;SHT31;66602;48.922;2.414;2024-01-06T06:27:42;4.73;93.53
77100;SHT31;66602;48.922;2.414;2024-01-06T06:30:08;4.80;93.36
77100;SHT31;66602;48.922;2.414;2024-01-06T06:32:33;4.84;93.10
77100;SHT31;66602;48.922;2.414;2024-01-06T06:34:59;4.86;92.84
77100;SHT31;66602;48.922;2.414;2024-01-06T06:37:24;4.88;92.65
77100;SHT31;66602;48.922;2.414;2024-01-06T06:39:50;4.96;92.22
77100;SHT31;66602;48.922;2.414;2024-01-06T06:42:15;5.01;91.92
77100;SHT31;66602;48.922;2.414;2024-01-06T06:44:40;5.01;91.60
77100;SHT31;66602;48.922;2.414;2024-01-06T06:47:06;5.04;91.16
77100;SHT31;66602;48.922;2.414;2024-01-06T06:49:31;5.11;90.91
77100;SHT31;66602;48.922;2.414;2024-01-06T06:51:57;5.13;90.72
77100;SHT31;66602;48.922;2.414;2024-01-06T06:54:22;5.13;90.73
77100;SHT31;66602;48.922;2.414;2024-01-06T06:56:48;5.11;90.75
77100;SHT31;66602;48.922;2.414;2024-01-06T06:59:13;5.14;90.82
77100;SHT31;66602;48.922;2.414;2024-01-06T07:01:39;5.11;90.78
77100;SHT31;66602;48.922;2.414;2024-01-06T07:04:05;5.17;90.75
77100;SHT31;66602;48.922;2.414;2024-01-06T07:06:30;5.18;90.54
77100;SHT31;66602;48.922;2.414;2024-01-06T07:08:56;5.18;90.40
77100;SHT31;66602;48.922;2.414;2024-01-06T07:11:22;5.20;90.40
77100;SHT31;66602;48.922;2.414;2024-01-06T07:13:49;5.24;90.17
77100;SHT31;66602;48.922;2.414;2024-01-06T07:16:16;5.25;90.15
77100;SHT31;66602;48.922;2.414;2024-01-06T07:18:42;5.24;90.17
77100;SHT31;66602;48.922;2.414;2024-01-06T07:21:07;5.25;89.78
77100;SHT31;66602;48.922;2.414;2024-01-06T07:23:33;5.27;89.81
77100;SHT31;66602;48.922;2.414;2024-01-06T07:25:59;5.30;89.71
77100;SHT31;66602;48.922;2.414;2024-01-06T07:28:24;5.31;89.36
77100;SHT31;66602;48.922;2.414;2024-01-06T07:30:50;5.35;89.33
77100;SHT31;66602;48.922;2.414;2024-01-06T07:33:16;5.31;89.52
77100;SHT31;66602;48.922;2.414;2024-01-06T07:35:42;5.30;89.57
77100;SHT31;66602;48.922;2.414;2024-01-06T07:38:12;5.31;89.48
77100;SHT31;66602;48.922;2.414;2024-01-06T07:40:39;5.27;89.62
77100;SHT31;66602;48.922;2.414;2024-01-06T07:43:04;5.27;89.67
77100;SHT31;66602;48.922;2.414;2024-01-06T07:45:31;5.30;89.66
77100;SHT31;66602;48.922;2.414;2024-01-06T07:47:57;5.30;89.55
77100;SHT31;66602;48.922;2.414;2024-01-06T07:50:23;5.30;89.63
77100;SHT31;66602;48.922;2.414;2024-01-06T07:52:48;5.30;89.65
77100;SHT31;66602;48.922;2.414;2024-01-06T07:55:14;5.27;89.43
77100;SHT31;66602;48.922;2.414;2024-01-06T07:57:40;5.32;89.47
77100;SHT31;66602;48.922;2.414;2024-01-06T08:00:06;5.31;89.50
77100;SHT31;66602;48.922;2.414;2024-01-06T08:02:31;5.31;89.51
77100;SHT31;66602;48.922;2.414;2024-01-06T08:04:57;5.34;89.27
77100;SHT31;66602;48.922;2.414;2024-01-06T08:07:22;5.35;88.98
77100;SHT31;66602;48.922;2.414;2024-01-06T08:09:48;5.36;88.97
77100;SHT31;66602;48.922;2.414;2024-01-06T08:12:15;5.36;88.95
77100;SHT31;66602;48.922;2.414;2024-01-06T08:14:40;5.36;88.94
77100;SHT31;66602;48.922;2.414;2024-01-06T08:17:05;5.39;88.80
77100;SHT31;66602;48.922;2.414;2024-01-06T08:19:31;5.44;88.82
77100;SHT31;66602;48.922;2.414;2024-01-06T08:21:58;5.46;88.42
77100;SHT31;66602;48.922;2.414;2024-01-06T08:24:24;5.52;88.20
77100;SHT31;66602;48.922;2.414;2024-01-06T08:26:50;5.59;87.37
77100;SHT31;66602;48.922;2.414;2024-01-06T08:29:16;5.65;86.89
77100;SHT31;66602;48.922;2.414;2024-01-06T08:31:41;5.67;86.68
77100;SHT31;66602;48.922;2.414;2024-01-06T08:34:07;5.77;85.91
77100;SHT31;66602;48.922;2.414;2024-01-06T08:36:34;5.85;85.12
77100;SHT31;66602;48.922;2.414;2024-01-06T08:38:59;5.92;84.32
77100;SHT31;66602;48.922;2.414;2024-01-06T08:41:24;5.92;84.54
77100;SHT31;66602;48.922;2.414;2024-01-06T08:43:50;5.96;83.95
77100;SHT31;66602;48.922;2.414;2024-01-06T08:46:15;5.97;83.76
77100;SHT31;66602;48.922;2.414;2024-01-06T08:48:42;6.04;83.57
77100;SHT31;66602;48.922;2.414;2024-01-06T08:51:07;6.09;83.65
77100;SHT31;66602;48.922;2.414;2024-01-06T08:53:33;6.14;83.12
77100;SHT31;66602;48.922;2.414;2024-01-06T08:55:58;6.17;82.76
77100;SHT31;66602;48.922;2.414;2024-01-06T08:58:24;6.27;82.91
77100;SHT31;66602;48.922;2.414;2024-01-06T09:00:50;6.31;82.49
77100;SHT31;66602;48.922;2.414;2024-01-06T09:03:15;6.35;82.30
77100;SHT31;66602;48.922;2.414;2024-01-06T09:05:42;6.35;82.44
77100;SHT31;66602;48.922;2.414;2024-01-06T09:08:07;6.28;82.48
77100;SHT31;66602;48.922;2.414;2024-01-06T09:10:33;6.27;82.36
77100;SHT31;66602;48.922;2.414;2024-01-06T09:12:59;6.20;82.66
77100;SHT31;66602;48.922;2.414;2024-01-06T09:15:27;6.20;82.71
77100;SHT31;66602;48.922;2.414;2024-01-06T09:17:52;6.20;82.65
77100;SHT31;66602;48.922;2.414;2024-01-06T09:20:18;6.18;82.51
77100;SHT31;66602;48.922;2.414;2024-01-06T09:22:48;6.18;82.54
77100;SHT31;66602;48.922;2.414;2024-01-06T09:25:14;6.20;83.02
77100;SHT31;66602;48.922;2.414;2024-01-06T09:27:40;6.16;83.03
77100;SHT31;66602;48.922;2.414;2024-01-06T09:30:06;6.18;82.88
77100;SHT31;66602;48.922;2.414;2024-01-06T09:32:33;6.18;82.64
77100;SHT31;66602;48.922;2.414;2024-01-06T09:34:59;6.14;82.64
77100;SHT31;66602;48.922;2.414;2024-01-06T09:37:25;6.17;82.64
77100;SHT31;66602;48.922;2.414;2024-01-06T09:39:50;6.24;82.39
77100;SHT31;66602;48.922;2.414;2024-01-06T09:42:16;6.34;81.02
77100;SHT31;66602;48.922;2.414;2024-01-06T09:44:42;6.51;80.91
77100;SHT31;66602;48.922;2.414;2024-01-06T09:47:11;6.67;79.61
77100;SHT31;66602;48.922;2.414;2024-01-06T09:49:38;6.85;78.85
77100;SHT31;66602;48.922;2.414;2024-01-06T09:52:11;6.97;77.49
77100;SHT31;66602;48.922;2.414;2024-01-06T09:54:41;7.20;77.89
77100;SHT31;66602;48.922;2.414;2024-01-06T09:57:09;7.43;76.46
77100;SHT31;66602;48.922;2.414;2024-01-06T09:59:38;7.44;75.41
77100;SHT31;66602;48.922;2.414;2024-01-06T10:02:07;7.61;76.05
77100;SHT31;66602;48.922;2.414;2024-01-06T10:04:34;7.70;75.25
77100;SHT31;66602;48.922;2.414;2024-01-06T10:06:59;7.63;75.52
77100;SHT31;66602;48.922;2.414;2024-01-06T10:09:28;7.63;74.97
77100;SHT31;66602;48.922;2.414;2024-01-06T10:11:57;7.47;75.61
77100;SHT31;66602;48.922;2.414;2024-01-06T10:14:24;7.40;76.19
77100;SHT31;66602;48.922;2.414;2024-01-06T10:16:51;7.37;76.00
77100;SHT31;66602;48.922;2.414;2024-01-06T10:19:17;7.30;76.29
77100;SHT31;66602;48.922;2.414;2024-01-06T10:21:43;7.20;76.65
77100;SHT31;66602;48.922;2.414;2024-01-06T10:24:09;7.13;77.05
77100;SHT31;66602;48.922;2.414;2024-01-06T10:26:35;7.10;77.39
77100;SHT31;66602;48.922;2.414;2024-01-06T10:29:02;7.13;76.78
77100;SHT31;66602;48.922;2.414;2024-01-06T10:31:29;7.22;76.78
77100;SHT31;66602;48.922;2.414;2024-01-06T10:33:55;7.33;76.89
77100;SHT31;66602;48.922;2.414;2024-01-06T10:36:23;7.42;76.35
77100;SHT31;66602;48.922;2.414;2024-01-06T10:38:49;7.44;76.63
77100;SHT31;66602;48.922;2.414;2024-01-06T10:41:16;7.38;75.11
77100;SHT31;66602;48.922;2.414;2024-01-06T10:43:42;7.47;75.95
77100;SHT31;66602;48.922;2.414;2024-01-06T10:46:09;7.40;75.96
77100;SHT31;66602;48.922;2.414;2024-01-06T10:48:40;7.43;75.94
77100;SHT31;66602;48.922;2.414;2024-01-06T10:51:12;7.53;75.61
77100;SHT31;66602;48.922;2.414;2024-01-06T10:53:42;7.64;75.09
77100;SHT31;66602;48.922;2.414;2024-01-06T10:56:08;7.73;75.07
77100;SHT31;66602;48.922;2.414;2024-01-06T10:58:38;7.78;74.42
77100;SHT31;66602;48.922;2.414;2024-01-06T11:01:11;7.75;74.38
77100;SHT31;66602;48.922;2.414;2024-01-06T11:03:38;7.77;74.57
77100;SHT31;66602;48.922;2.414;2024-01-06T11:06:08;7.79;74.38
77100;SHT31;66602;48.922;2.414;2024-01-06T11:08:54;7.71;74.25
77100;SHT31;66602;48.922;2.414;2024-01-06T11:11:22;7.70;73.83
77100;SHT31;66602;48.922;2.414;2024-01-06T11:13:49;7.70;74.09
77100;SHT31;66602;48.922;2.414;2024-01-06T11:16:34;7.60;73.87
77100;SHT31;66602;48.922;2.414;2024-01-06T11:19:00;7.60;74.54
77100;SHT31;66602;48.922;2.414;2024-01-06T11:21:26;7.67;73.90
77100;SHT31;66602;48.922;2.414;2024-01-06T11:26:39;7.74;73.64
77100;SHT31;66602;48.922;2.414;2024-01-06T11:29:05;7.75;74.00
77100;SHT31;66602;48.922;2.414;2024-01-06T11:31:33;7.74;73.82
77100;SHT31;66602;48.922;2.414;2024-01-06T11:34:18;7.50;74.09
77100;SHT31;66602;48.922;2.414;2024-01-06T11:36:50;7.58;74.80
77100;SHT31;66602;48.922;2.414;2024-01-06T11:39:37;7.67;74.42
77100;SHT31;66602;48.922;2.414;2024-01-06T11:42:05;7.77;73.92
77100;SHT31;66602;48.922;2.414;2024-01-06T11:44:34;7.82;73.62
77100;SHT31;66602;48.922;2.414;2024-01-06T11:47:01;7.79;73.36
77100;SHT31;66602;48.922;2.414;2024-01-06T11:49:27;7.81;73.74
77100;SHT31;66602;48.922;2.414;2024-01-06T11:51:56;8.06;73.03
77100;SHT31;66602;48.922;2.414;2024-01-06T11:54:22;8.33;72.40
77100;SHT31;66602;48.922;2.414;2024-01-06T11:56:48;8.54;71.42
77100;SHT31;66602;48.922;2.414;2024-01-06T11:59:14;8.59;71.56
77100;SHT31;66602;48.922;2.414;2024-01-06T12:01:40;8.60;70.35
77100;SHT31;66602;48.922;2.414;2024-01-06T12:04:06;8.64;71.69
77100;SHT31;66602;48.922;2.414;2024-01-06T12:06:32;8.39;70.21
77100;SHT31;66602;48.922;2.414;2024-01-06T12:09:08;8.37;70.62
77100;SHT31;66602;48.922;2.414;2024-01-06T12:11:34;8.30;70.65
77100;SHT31;66602;48.922;2.414;2024-01-06T12:14:00;8.32;70.84
77100;SHT31;66602;48.922;2.414;2024-01-06T12:16:25;8.49;70.36
77100;SHT31;66602;48.922;2.414;2024-01-06T12:18:54;8.47;70.64
77100;SHT31;66602;48.922;2.414;2024-01-06T12:21:25;8.22;70.02
77100;SHT31;66602;48.922;2.414;2024-01-06T12:23:50;8.12;71.01
77100;SHT31;66602;48.922;2.414;2024-01-06T12:26:19;7.95;70.81
77100;SHT31;66602;48.922;2.414;2024-01-06T12:28:45;7.91;70.37
77100;SHT31;66602;48.922;2.414;2024-01-06T12:31:11;7.91;70.43
77100;SHT31;66602;48.922;2.414;2024-01-06T12:33:38;7.96;70.70
77100;SHT31;66602;48.922;2.414;2024-01-06T12:36:07;7.96;70.65
77100;SHT31;66602;48.922;2.414;2024-01-06T12:38:34;8.13;71.31
77100;SHT31;66602;48.922;2.414;2024-01-06T12:41:00;8.29;69.51
77100;SHT31;66602;48.922;2.414;2024-01-06T12:43:25;8.39;70.30
77100;SHT31;66602;48.922;2.414;2024-01-06T12:45:51;8.53;69.18
77100;SHT31;66602;48.922;2.414;2024-01-06T12:48:18;8.50;69.55
77100;SHT31;66602;48.922;2.414;2024-01-06T12:50:43;8.39;69.91
77100;SHT31;66602;48.922;2.414;2024-01-06T12:53:09;8.26;70.02
77100;SHT31;66602;48.922;2.414;2024-01-06T12:55:37;8.10;70.93
77100;SHT31;66602;48.922;2.414;2024-01-06T12:58:02;7.91;70.79
77100;SHT31;66602;48.922;2.414;2024-01-06T13:00:29;7.81;71.50
77100;SHT31;66602;48.922;2.414;2024-01-06T13:02:55;7.77;71.67
77100;SHT31;66602;48.922;2.414;2024-01-06T13:05:20;7.75;72.09
77100;SHT31;66602;48.922;2.414;2024-01-06T13:07:46;7.74;72.38
77100;SHT31;66602;48.922;2.414;2024-01-06T13:10:11;7.73;72.59
77100;SHT31;66602;48.922;2.414;2024-01-06T13:12:37;7.75;72.45
77100;SHT31;66602;48.922;2.414;2024-01-06T13:15:03;7.79;72.80
77100;SHT31;66602;48.922;2.414;2024-01-06T13:17:29;7.77;72.96
77100;SHT31;66602;48.922;2.414;2024-01-06T13:19:54;7.79;73.41
77100;SHT31;66602;48.922;2.414;2024-01-06T13:22:20;7.82;72.93
77100;SHT31;66602;48.922;2.414;2024-01-06T13:24:47;7.91;73.24
77100;SHT31;66602;48.922;2.414;2024-01-06T13:27:12;7.91;72.73
77100;SHT31;66602;48.922;2.414;2024-01-06T13:29:38;7.91;72.91
77100;SHT31;66602;48.922;2.414;2024-01-06T13:32:04;7.85;73.50
77100;SHT31;66602;48.922;2.414;2024-01-06T13:34:31;7.86;73.54
77100;SHT31;66602;48.922;2.414;2024-01-06T13:36:56;7.81;73.99
77100;SHT31;66602;48.922;2.414;2024-01-06T13:39:23;7.82;74.21
77100;SHT31;66602;48.922;2.414;2024-01-06T13:41:48;7.78;73.30
77100;SHT31;66602;48.922;2.414;2024-01-06T13:44:15;7.82;73.61
77100;SHT31;66602;48.922;2.414;2024-01-06T13:46:41;7.85;73.42
77100;SHT31;66602;48.922;2.414;2024-01-06T13:49:10;7.89;72.72
77100;SHT31;66602;48.922;2.414;2024-01-06T13:51:36;7.98;73.12
77100;SHT31;66602;48.922;2.414;2024-01-06T13:54:01;8.06;72.58
77100;SHT31;66602;48.922;2.414;2024-01-06T13:56:27;8.10;72.62
77100;SHT31;66602;48.922;2.414;2024-01-06T13:58:52;8.09;73.28
77100;SHT31;66602;48.922;2.414;2024-01-06T14:01:18;8.05;73.47
77100;SHT31;66602;48.922;2.414;2024-01-06T14:03:43;7.99;73.72
77100;SHT31;66602;48.922;2.414;2024-01-06T14:06:09;7.92;72.75
77100;SHT31;66602;48.922;2.414;2024-01-06T14:08:35;7.85;73.96
77100;SHT31;66602;48.922;2.414;2024-01-06T14:11:00;7.82;73.76
77100;SHT31;66602;48.922;2.414;2024-01-06T14:13:26;7.86;74.20
77100;SHT31;66602;48.922;2.414;2024-01-06T14:15:51;7.86;73.71
77100;SHT31;66602;48.922;2.414;2024-01-06T14:18:17;7.96;74.16
77100;SHT31;66602;48.922;2.414;2024-01-06T14:20:42;7.96;73.66
77100;SHT31;66602;48.922;2.414;2024-01-06T14:23:08;7.98;73.90
77100;SHT31;66602;48.922;2.414;2024-01-06T14:25:35;7.99;73.18
77100;SHT31;66602;48.922;2.414;2024-01-06T14:28:01;7.91;74.06
77100;SHT31;66602;48.922;2.414;2024-01-06T14:30:27;7.86;74.68
77100;SHT31;66602;48.922;2.414;2024-01-06T14:32:52;7.84;74.32
77100;SHT31;66602;48.922;2.414;2024-01-06T14:35:17;7.82;74.14
77100;SHT31;66602;48.922;2.414;2024-01-06T14:37:43;7.79;74.15
77100;SHT31;66602;48.922;2.414;2024-01-06T14:40:11;7.78;73.68
77100;SHT31;66602;48.922;2.414;2024-01-06T14:42:37;7.77;73.75
77100;SHT31;66602;48.922;2.414;2024-01-06T14:45:03;7.74;74.06
77100;SHT31;66602;48.922;2.414;2024-01-06T14:47:29;7.78;74.26
77100;SHT31;66602;48.922;2.414;2024-01-06T14:49:54;7.84;73.72
77100;SHT31;66602;48.922;2.414;2024-01-06T14:52:20;7.84;73.37
77100;SHT31;66602;48.922;2.414;2024-01-06T14:54:45;7.85;74.76
77100;SHT31;66602;48.922;2.414;2024-01-06T14:57:11;7.78;73.85
77100;SHT31;66602;48.922;2.414;2024-01-06T14:59:37;7.74;74.07
77100;SHT31;66602;48.922;2.414;2024-01-06T15:02:03;7.67;73.89
77100;SHT31;66602;48.922;2.414;2024-01-06T15:04:29;7.60;74.04
77100;SHT31;66602;48.922;2.414;2024-01-06T15:06:55;7.57;74.51
77100;SHT31;66602;48.922;2.414;2024-01-06T15:09:20;7.54;73.63
77100;SHT31;66602;48.922;2.414;2024-01-06T15:11:46;7.47;73.94
77100;SHT31;66602;48.922;2.414;2024-01-06T15:14:12;7.43;74.02
77100;SHT31;66602;48.922;2.414;2024-01-06T15:16:38;7.40;74.61
77100;SHT31;66602;48.922;2.414;2024-01-06T15:19:03;7.34;74.83
77100;SHT31;66602;48.922;2.414;2024-01-06T15:21:29;7.34;74.80
77100;SHT31;66602;48.922;2.414;2024-01-06T15:23:59;7.30;75.41
77100;SHT31;66602;48.922;2.414;2024-01-06T15:26:25;7.33;74.89
77100;SHT31;66602;48.922;2.414;2024-01-06T15:28:50;7.30;74.95
77100;SHT31;66602;48.922;2.414;2024-01-06T15:31:16;7.23;75.72
77100;SHT31;66602;48.922;2.414;2024-01-06T15:33:41;7.20;75.47
77100;SHT31;66602;48.922;2.414;2024-01-06T15:36:08;7.23;75.73
77100;SHT31;66602;48.922;2.414;2024-01-06T15:38:34;7.24;76.08
77100;SHT31;66602;48.922;2.414;2024-01-06T15:40:59;7.23;75.44